sensor_id;sensor_type;location;lat;lon;timestamp;temperature;humidity
10030;DHT22;5055;52.054;8.524;2023-05-10T00:01:35;14.70;97.00
10030;DHT22;5055;52.054;8.524;2023-05-10T00:04:03;14.70;97.00
10030;DHT22;5055;52.054;8.524;2023-05-10T00:06:33;14.70;97.00
10030;DHT22;5055;52.054;8.524;2023-05-10T00:09:01;14.70;97.00
10030;DHT22;5055;52.054;8.524;2023-05-10T00:11:29;14.70;97.00
10030;DHT22;5055;52.054;8.524;2023-05-10T00:13:57;14.60;97.00
10030;DHT22;5055;52.054;8.524;2023-05-10T00:16:26;14.70;97.00
10030;DHT22;5055;52.054;8.524;2023-05-10T00:19:02;14.70;97.00
10030;DHT22;5055;52.054;8.524;2023-05-10T00:21:30;14.70;97.00
10030;DHT22;5055;52.054;8.524;2023-05-10T00:24:01;14.60;97.00
10030;DHT22;5055;52.054;8.524;2023-05-10T00:26:30;14.50;97.00
10030;DHT22;5055;52.054;8.524;2023-05-10T00:28:58;14.50;97.00
10030;DHT22;5055;52.054;8.524;2023-05-10T00:31:26;14.50;97.00
10030;DHT22;5055;52.054;8.524;2023-05-10T00:33:55;14.50;97.00
10030;DHT22;5055;52.054;8.524;2023-05-10T00:36:23;14.50;97.00
10030;DHT22;5055;52.054;8.524;2023-05-10T00:38:51;14.50;97.00
10030;DHT22;5055;52.054;8.524;2023-05-10T00:41:21;14.50;97.00
10030;DHT22;5055;52.054;8.524;2023-05-10T00:43:49;14.50;97.00
10030;DHT22;5055;52.054;8.524;2023-05-10T00:46:17;14.50;97.00
10030;DHT22;5055;52.054;8.524;2023-05-10T00:48:46;14.50;97.00
10030;DHT22;5055;52.054;8.524;2023-05-10T00:51:14;14.50;97.00
10030;DHT22;5055;52.054;8.524;2023-05-10T00:53:43;14.50;97.00
10030;DHT22;5055;52.054;8.524;2023-05-10T00:56:13;14.50;97.00
10030;DHT22;5055;52.054;8.524;2023-05-10T00:58:42;14.40;97.00
10030;DHT22;5055;52.054;8.524;2023-05-10T01:01:11;14.40;97.00
10030;DHT22;5055;52.054;8.524;2023-05-10T01:03:39;14.40;97.00
10030;DHT22;5055;52.054;8.524;2023-05-10T01:06:08;14.40;97.00
10030;DHT22;5055;52.054;8.524;2023-05-10T01:08:38;14.40;97.00
10030;DHT22;5055;52.054;8.524;2023-05-10T01:11:06;14.50;97.00
10030;DHT22;5055;52.054;8.524;2023-05-10T01:13:36;14.50;97.00
10030;DHT22;5055;52.054;8.524;2023-05-10T01:16:07;14.50;97.00
10030;DHT22;5055;52.054;8.524;2023-05-10T01:18:37;14.40;97.00
10030;DHT22;5055;52.054;8.524;2023-05-10T01:21:19;14.40;97.00
10030;DHT22;5055;52.054;8.524;2023-05-10T01:27:20;14.50;97.00
10030;DHT22;5055;52.054;8.524;2023-05-10T01:30:19;14.50;97.00
10030;DHT22;5055;52.054;8.524;2023-05-10T01:32:56;14.50;97.00
10030;DHT22;5055;52.054;8.524;2023-05-10T01:35:33;14.50;97.00
10030;DHT22;5055;52.054;8.524;2023-05-10T01:38:18;14.50;97.00
10030;DHT22;5055;52.054;8.524;2023-05-10T01:40:56;14.50;97.00
10030;DHT22;5055;52.054;8.524;2023-05-10T01:43:36;14.40;97.00
10030;DHT22;5055;52.054;8.524;2023-05-10T01:46:09;14.40;97.00
10030;DHT22;5055;52.054;8.524;2023-05-10T01:48:47;14.40;97.00
10030;DHT22;5055;52.054;8.524;2023-05-10T01:51:23;14.40;97.00
10030;DHT22;5055;52.054;8.524;2023-05-10T01:53:58;14.40;97.00
10030;DHT22;5055;52.054;8.524;2023-05-10T01:56:30;14.30;97.00
10030;DHT22;5055;52.054;8.524;2023-05-10T01:59:00;14.40;97.00
10030;DHT22;5055;52.054;8.524;2023-05-10T02:01:28;14.40;97.00
10030;DHT22;5055;52.054;8.524;2023-05-10T02:03:59;14.40;97.00
10030;DHT22;5055;52.054;8.524;2023-05-10T02:06:28;14.40;97.00
10030;DHT22;5055;52.054;8.524;2023-05-10T02:08:56;14.30;97.00
10030;DHT22;5055;52.054;8.524;2023-05-10T02:11:25;14.30;97.00
10030;DHT22;5055;52.054;8.524;2023-05-10T02:13:55;14.30;97.00
10030;DHT22;5055;52.054;8.524;2023-05-10T02:16:26;14.30;97.00
10030;DHT22;5055;52.054;8.524;2023-05-10T02:18:59;14.30;97.00
10030;DHT22;5055;52.054;8.524;2023-05-10T02:21:29;14.20;97.00
10030;DHT22;5055;52.054;8.524;2023-05-10T02:23:58;14.10;97.00
10030;DHT22;5055;52.054;8.524;2023-05-10T02:26:27;14.10;97.00
10030;DHT22;5055;52.054;8.524;2023-05-10T02:28:58;14.10;97.00
10030;DHT22;5055;52.054;8.524;2023-05-10T02:31:26;14.00;97.00
10030;DHT22;5055;52.054;8.524;2023-05-10T02:33:55;14.00;97.00
10030;DHT22;5055;52.054;8.524;2023-05-10T02:36:26;14.00;97.00
10030;DHT22;5055;52.054;8.524;2023-05-10T02:38:55;14.00;97.00
10030;DHT22;5055;52.054;8.524;2023-05-10T02:41:25;13.90;97.00
10030;DHT22;5055;52.054;8.524;2023-05-10T02:43:57;13.90;97.00
10030;DHT22;5055;52.054;8.524;2023-05-10T02:46:27;13.90;97.00
10030;DHT22;5055;52.054;8.524;2023-05-10T02:48:55;13.90;97.00
10030;DHT22;5055;52.054;8.524;2023-05-10T02:51:28;13.90;97.00
10030;DHT22;5055;52.054;8.524;2023-05-10T02:54:02;13.90;97.00
10030;DHT22;5055;52.054;8.524;2023-05-10T02:56:33;13.90;97.00
10030;DHT22;5055;52.054;8.524;2023-05-10T02:59:02;13.90;97.00
10030;DHT22;5055;52.054;8.524;2023-05-10T03:01:30;13.90;97.00
10030;DHT22;5055;52.054;8.524;2023-05-10T03:03:58;13.90;97.00
10030;DHT22;5055;52.054;8.524;2023-05-10T03:06:28;13.90;97.00
10030;DHT22;5055;52.054;8.524;2023-05-10T03:08:56;13.90;97.00
10030;DHT22;5055;52.054;8.524;2023-05-10T03:11:36;13.90;97.00
10030;DHT22;5055;52.054;8.524;2023-05-10T03:14:18;13.90;97.00
10030;DHT22;5055;52.054;8.524;2023-05-10T03:16:57;13.90;97.00
10030;DHT22;5055;52.054;8.524;2023-05-10T03:19:30;13.80;97.00
10030;DHT22;5055;52.054;8.524;2023-05-10T03:22:08;13.80;97.00
10030;DHT22;5055;52.054;8.524;2023-05-10T03:24:39;13.80;97.00
10030;DHT22;5055;52.054;8.524;2023-05-10T03:27:09;13.80;97.00
10030;DHT22;5055;52.054;8.524;2023-05-10T03:29:38;13.80;97.00
10030;DHT22;5055;52.054;8.524;2023-05-10T03:32:06;13.80;97.00
10030;DHT22;5055;52.054;8.524;2023-05-10T03:34:41;13.80;97.00
10030;DHT22;5055;52.054;8.524;2023-05-10T03:37:11;13.80;97.00
10030;DHT22;5055;52.054;8.524;2023-05-10T03:39:39;13.70;97.00
10030;DHT22;5055;52.054;8.524;2023-05-10T03:42:07;13.70;97.00
10030;DHT22;5055;52.054;8.524;2023-05-10T03:44:38;13.70;97.00
10030;DHT22;5055;52.054;8.524;2023-05-10T03:47:07;13.70;97.00
10030;DHT22;5055;52.054;8.524;2023-05-10T03:49:35;13.70;97.00
10030;DHT22;5055;52.054;8.524;2023-05-10T03:52:03;13.70;97.00
10030;DHT22;5055;52.054;8.524;2023-05-10T03:54:33;13.70;97.00
10030;DHT22;5055;52.054;8.524;2023-05-10T03:57:01;13.70;97.00
10030;DHT22;5055;52.054;8.524;2023-05-10T03:59:29;13.60;97.00
10030;DHT22;5055;52.054;8.524;2023-05-10T04:01:57;13.70;97.00
10030;DHT22;5055;52.054;8.524;2023-05-10T04:04:26;13.60;97.00
10030;DHT22;5055;52.054;8.524;2023-05-10T04:06:54;13.70;97.00
10030;DHT22;5055;52.054;8.524;2023-05-10T04:09:22;13.60;97.00
10030;DHT22;5055;52.054;8.524;2023-05-10T04:11:51;13.60;97.00
10030;DHT22;5055;52.054;8.524;2023-05-10T04:14:19;13.60;97.00
10030;DHT22;5055;52.054;8.524;2023-05-10T04:16:47;13.60;97.00
10030;DHT22;5055;52.054;8.524;2023-05-10T04:19:16;13.50;97.00
10030;DHT22;5055;52.054;8.524;2023-05-10T04:21:44;13.50;97.00
10030;DHT22;5055;52.054;8.524;2023-05-10T04:24:12;13.50;97.00
10030;DHT22;5055;52.054;8.524;2023-05-10T04:26:40;13.40;97.00
10030;DHT22;5055;52.054;8.524;2023-05-10T04:29:09;13.40;97.00
10030;DHT22;5055;52.054;8.524;2023-05-10T04:31:37;13.40;97.00
10030;DHT22;5055;52.054;8.524;2023-05-10T04:34:05;13.30;97.00
10030;DHT22;5055;52.054;8.524;2023-05-10T04:36:33;13.30;97.00
10030;DHT22;5055;52.054;8.524;2023-05-10T04:39:03;13.20;97.00
10030;DHT22;5055;52.054;8.524;2023-05-10T04:41:31;13.20;97.00
10030;DHT22;5055;52.054;8.524;2023-05-10T04:43:59;13.20;97.00
10030;DHT22;5055;52.054;8.524;2023-05-10T04:46:29;13.20;97.00
10030;DHT22;5055;52.054;8.524;2023-05-10T04:48:57;13.10;97.00
10030;DHT22;5055;52.054;8.524;2023-05-10T04:51:25;13.10;97.00
10030;DHT22;5055;52.054;8.524;2023-05-10T04:53:53;13.10;97.00
10030;DHT22;5055;52.054;8.524;2023-05-10T04:56:32;13.10;97.00
10030;DHT22;5055;52.054;8.524;2023-05-10T04:59:00;13.10;97.00
10030;DHT22;5055;52.054;8.524;2023-05-10T05:01:29;13.10;97.00
10030;DHT22;5055;52.054;8.524;2023-05-10T05:03:57;13.10;97.00
10030;DHT22;5055;52.054;8.524;2023-05-10T05:06:26;13.10;97.00
10030;DHT22;5055;52.054;8.524;2023-05-10T05:08:54;13.10;97.00
10030;DHT22;5055;52.054;8.524;2023-05-10T05:11:22;13.10;97.00
10030;DHT22;5055;52.054;8.524;2023-05-10T05:13:50;13.10;97.00
10030;DHT22;5055;52.054;8.524;2023-05-10T05:16:18;13.20;97.00
10030;DHT22;5055;52.054;8.524;2023-05-10T05:18:48;13.20;97.00
10030;DHT22;5055;52.054;8.524;2023-05-10T05:21:16;13.20;97.00
10030;DHT22;5055;52.054;8.524;2023-05-10T05:23:45;13.20;97.00
10030;DHT22;5055;52.054;8.524;2023-05-10T05:26:13;13.30;97.00
10030;DHT22;5055;52.054;8.524;2023-05-10T05:28:41;13.20;97.00
10030;DHT22;5055;52.054;8.524;2023-05-10T05:31:09;13.30;97.00
10030;DHT22;5055;52.054;8.524;2023-05-10T05:33:38;13.30;97.00
10030;DHT22;5055;52.054;8.524;2023-05-10T05:36:07;13.30;97.00
10030;DHT22;5055;52.054;8.524;2023-05-10T05:38:35;13.30;97.00
10030;DHT22;5055;52.054;8.524;2023-05-10T05:41:04;13.30;97.00
10030;DHT22;5055;52.054;8.524;2023-05-10T05:43:32;13.30;97.00
10030;DHT22;5055;52.054;8.524;2023-05-10T05:46:04;13.30;97.00
10030;DHT22;5055;52.054;8.524;2023-05-10T05:48:32;13.30;97.00
10030;DHT22;5055;52.054;8.524;2023-05-10T05:51:00;13.20;97.00
10030;DHT22;5055;52.054;8.524;2023-05-10T05:53:33;13.20;97.00
10030;DHT22;5055;52.054;8.524;2023-05-10T05:56:01;13.20;97.00
10030;DHT22;5055;52.054;8.524;2023-05-10T05:58:30;13.20;97.00
10030;DHT22;5055;52.054;8.524;2023-05-10T06:00:58;13.20;97.00
10030;DHT22;5055;52.054;8.524;2023-05-10T06:03:26;13.20;97.00
10030;DHT22;5055;52.054;8.524;2023-05-10T06:05:54;13.10;97.00
10030;DHT22;5055;52.054;8.524;2023-05-10T06:08:23;13.10;97.00
10030;DHT22;5055;52.054;8.524;2023-05-10T06:10:52;13.10;97.00
10030;DHT22;5055;52.054;8.524;2023-05-10T06:13:20;13.10;97.00
10030;DHT22;5055;52.054;8.524;2023-05-10T06:15:49;13.10;97.00
10030;DHT22;5055;52.054;8.524;2023-05-10T06:18:17;13.00;97.00
10030;DHT22;5055;52.054;8.524;2023-05-10T06:20:45;13.00;97.00
10030;DHT22;5055;52.054;8.524;2023-05-10T06:23:13;13.00;97.00
10030;DHT22;5055;52.054;8.524;2023-05-10T06:25:42;13.10;97.00
10030;DHT22;5055;52.054;8.524;2023-05-10T06:28:11;13.10;97.00
10030;DHT22;5055;52.054;8.524;2023-05-10T06:30:39;13.10;97.00
10030;DHT22;5055;52.054;8.524;2023-05-10T06:33:07;13.10;97.00
10030;DHT22;5055;52.054;8.524;2023-05-10T06:35:36;13.10;97.00
10030;DHT22;5055;52.054;8.524;2023-05-10T06:38:04;13.10;97.00
10030;DHT22;5055;52.054;8.524;2023-05-10T06:40:32;13.10;97.00
10030;DHT22;5055;52.054;8.524;2023-05-10T06:43:00;13.10;97.00
10030;DHT22;5055;52.054;8.524;2023-05-10T06:45:30;13.20;97.00
10030;DHT22;5055;52.054;8.524;2023-05-10T06:47:58;13.30;97.00
10030;DHT22;5055;52.054;8.524;2023-05-10T06:50:26;13.30;97.00
10030;DHT22;5055;52.054;8.524;2023-05-10T06:52:54;13.30;97.00
10030;DHT22;5055;52.054;8.524;2023-05-10T06:55:23;13.30;97.00
10030;DHT22;5055;52.054;8.524;2023-05-10T06:57:51;13.30;97.00
10030;DHT22;5055;52.054;8.524;2023-05-10T07:00:20;13.40;97.00
10030;DHT22;5055;52.054;8.524;2023-05-10T07:02:49;13.40;97.00
10030;DHT22;5055;52.054;8.524;2023-05-10T07:05:18;13.40;97.00
10030;DHT22;5055;52.054;8.524;2023-05-10T07:07:47;13.40;97.00
10030;DHT22;5055;52.054;8.524;2023-05-10T07:10:15;13.50;97.00
10030;DHT22;5055;52.054;8.524;2023-05-10T07:12:43;13.50;97.00
10030;DHT22;5055;52.054;8.524;2023-05-10T07:15:11;13.50;97.00
10030;DHT22;5055;52.054;8.524;2023-05-10T07:17:39;13.50;97.00
10030;DHT22;5055;52.054;8.524;2023-05-10T07:20:13;13.50;97.00
10030;DHT22;5055;52.054;8.524;2023-05-10T07:22:41;13.60;97.00
10030;DHT22;5055;52.054;8.524;2023-05-10T07:25:09;13.60;97.00
10030;DHT22;5055;52.054;8.524;2023-05-10T07:27:37;13.70;97.00
10030;DHT22;5055;52.054;8.524;2023-05-10T07:30:07;13.70;97.00
10030;DHT22;5055;52.054;8.524;2023-05-10T07:32:35;13.60;97.00
10030;DHT22;5055;52.054;8.524;2023-05-10T07:35:04;13.70;97.00
10030;DHT22;5055;52.054;8.524;2023-05-10T07:37:34;13.70;97.00
10030;DHT22;5055;52.054;8.524;2023-05-10T07:40:03;13.70;97.00
10030;DHT22;5055;52.054;8.524;2023-05-10T07:42:31;13.80;97.00
10030;DHT22;5055;52.054;8.524;2023-05-10T07:44:59;13.80;97.00
10030;DHT22;5055;52.054;8.524;2023-05-10T07:47:27;13.80;97.00
10030;DHT22;5055;52.054;8.524;2023-05-10T07:49:55;13.90;97.00
10030;DHT22;5055;52.054;8.524;2023-05-10T07:52:23;13.90;97.00
10030;DHT22;5055;52.054;8.524;2023-05-10T07:54:52;14.00;97.00
10030;DHT22;5055;52.054;8.524;2023-05-10T07:57:21;14.10;97.00
10030;DHT22;5055;52.054;8.524;2023-05-10T07:59:49;14.20;97.00
10030;DHT22;5055;52.054;8.524;2023-05-10T08:02:18;14.30;97.00
10030;DHT22;5055;52.054;8.524;2023-05-10T08:04:46;14.20;97.00
10030;DHT22;5055;52.054;8.524;2023-05-10T08:07:14;14.20;97.00
10030;DHT22;5055;52.054;8.524;2023-05-10T08:09:42;14.30;97.00
10030;DHT22;5055;52.054;8.524;2023-05-10T08:12:12;14.30;97.00
10030;DHT22;5055;52.054;8.524;2023-05-10T08:14:41;14.30;97.00
10030;DHT22;5055;52.054;8.524;2023-05-10T08:17:09;14.30;97.00
10030;DHT22;5055;52.054;8.524;2023-05-10T08:19:37;14.40;97.00
10030;DHT22;5055;52.054;8.524;2023-05-10T08:22:05;14.40;97.00
10030;DHT22;5055;52.054;8.524;2023-05-10T08:24:33;14.60;97.00
10030;DHT22;5055;52.054;8.524;2023-05-10T08:27:05;14.60;97.00
10030;DHT22;5055;52.054;8.524;2023-05-10T08:29:34;14.70;97.00
10030;DHT22;5055;52.054;8.524;2023-05-10T08:32:15;14.80;97.00
10030;DHT22;5055;52.054;8.524;2023-05-10T08:34:43;15.00;97.00
10030;DHT22;5055;52.054;8.524;2023-05-10T08:37:11;15.00;97.00
10030;DHT22;5055;52.054;8.524;2023-05-10T08:39:40;15.30;97.00
10030;DHT22;5055;52.054;8.524;2023-05-10T08:42:09;15.60;97.00
10030;DHT22;5055;52.054;8.524;2023-05-10T08:44:38;15.90;97.00
10030;DHT22;5055;52.054;8.524;2023-05-10T08:47:07;15.80;97.00
10030;DHT22;5055;52.054;8.524;2023-05-10T08:49:37;15.90;97.00
10030;DHT22;5055;52.054;8.524;2023-05-10T08:52:05;16.00;97.00
10030;DHT22;5055;52.054;8.524;2023-05-10T08:54:35;15.90;97.00
10030;DHT22;5055;52.054;8.524;2023-05-10T08:57:04;15.90;97.00
10030;DHT22;5055;52.054;8.524;2023-05-10T08:59:32;15.80;97.00
10030;DHT22;5055;52.054;8.524;2023-05-10T09:02:02;15.80;97.00
10030;DHT22;5055;52.054;8.524;2023-05-10T09:04:32;15.80;97.00
10030;DHT22;5055;52.054;8.524;2023-05-10T09:07:00;15.90;97.00
10030;DHT22;5055;52.054;8.524;2023-05-10T09:09:29;15.80;97.00
10030;DHT22;5055;52.054;8.524;2023-05-10T09:11:57;15.80;97.00
10030;DHT22;5055;52.054;8.524;2023-05-10T09:14:25;15.60;97.00
10030;DHT22;5055;52.054;8.524;2023-05-10T09:16:54;15.60;97.00
10030;DHT22;5055;52.054;8.524;2023-05-10T09:19:24;15.50;97.00
10030;DHT22;5055;52.054;8.524;2023-05-10T09:21:52;15.40;97.00
10030;DHT22;5055;52.054;8.524;2023-05-10T09:24:25;15.30;97.00
10030;DHT22;5055;52.054;8.524;2023-05-10T09:26:53;15.40;97.00
10030;DHT22;5055;52.054;8.524;2023-05-10T09:29:21;15.40;97.00
10030;DHT22;5055;52.054;8.524;2023-05-10T09:31:50;15.50;97.00
10030;DHT22;5055;52.054;8.524;2023-05-10T09:34:30;15.50;97.00
10030;DHT22;5055;52.054;8.524;2023-05-10T09:37:00;15.70;97.00
10030;DHT22;5055;52.054;8.524;2023-05-10T09:39:33;15.80;97.00
10030;DHT22;5055;52.054;8.524;2023-05-10T09:42:03;16.10;97.00
10030;DHT22;5055;52.054;8.524;2023-05-10T09:44:32;16.20;97.00
10030;DHT22;5055;52.054;8.524;2023-05-10T09:47:00;16.40;97.00
10030;DHT22;5055;52.054;8.524;2023-05-10T09:49:30;16.50;97.00
10030;DHT22;5055;52.054;8.524;2023-05-10T09:52:00;16.60;97.00
10030;DHT22;5055;52.054;8.524;2023-05-10T09:54:30;16.70;97.00
10030;DHT22;5055;52.054;8.524;2023-05-10T09:56:58;17.00;97.00
10030;DHT22;5055;52.054;8.524;2023-05-10T09:59:28;17.40;97.00
10030;DHT22;5055;52.054;8.524;2023-05-10T10:01:57;17.50;97.00
10030;DHT22;5055;52.054;8.524;2023-05-10T10:04:27;17.70;97.00
10030;DHT22;5055;52.054;8.524;2023-05-10T10:07:01;17.50;97.00
10030;DHT22;5055;52.054;8.524;2023-05-10T10:09:30;17.40;97.00
10030;DHT22;5055;52.054;8.524;2023-05-10T10:11:59;17.80;97.00
10030;DHT22;5055;52.054;8.524;2023-05-10T10:14:27;18.00;97.00
10030;DHT22;5055;52.054;8.524;2023-05-10T10:16:56;18.30;97.00
10030;DHT22;5055;52.054;8.524;2023-05-10T10:19:27;18.30;97.00
10030;DHT22;5055;52.054;8.524;2023-05-10T10:21:55;18.20;97.00
10030;DHT22;5055;52.054;8.524;2023-05-10T10:24:25;18.30;97.00
10030;DHT22;5055;52.054;8.524;2023-05-10T10:26:58;18.10;97.00
10030;DHT22;5055;52.054;8.524;2023-05-10T10:29:35;17.80;97.00
10030;DHT22;5055;52.054;8.524;2023-05-10T10:32:11;17.50;97.00
10030;DHT22;5055;52.054;8.524;2023-05-10T10:34:44;17.60;97.00
10030;DHT22;5055;52.054;8.524;2023-05-10T10:37:12;18.20;97.00
10030;DHT22;5055;52.054;8.524;2023-05-10T10:39:42;18.80;97.00
10030;DHT22;5055;52.054;8.524;2023-05-10T10:42:10;19.20;97.00
10030;DHT22;5055;52.054;8.524;2023-05-10T10:44:38;19.50;97.00
10030;DHT22;5055;52.054;8.524;2023-05-10T10:47:21;20.10;97.00
10030;DHT22;5055;52.054;8.524;2023-05-10T10:49:53;20.50;97.00
10030;DHT22;5055;52.054;8.524;2023-05-10T10:52:36;20.60;97.00
10030;DHT22;5055;52.054;8.524;2023-05-10T10:55:07;20.50;97.00
10030;DHT22;5055;52.054;8.524;2023-05-10T10:57:54;20.20;97.00
10030;DHT22;5055;52.054;8.524;2023-05-10T11:00:28;20.00;97.00
10030;DHT22;5055;52.054;8.524;2023-05-10T11:02:59;19.70;97.00
10030;DHT22;5055;52.054;8.524;2023-05-10T11:05:45;19.50;97.00
10030;DHT22;5055;52.054;8.524;2023-05-10T11:08:17;19.30;97.00
10030;DHT22;5055;52.054;8.524;2023-05-10T11:11:06;18.90;97.00
10030;DHT22;5055;52.054;8.524;2023-05-10T11:13:38;18.50;97.00
10030;DHT22;5055;52.054;8.524;2023-05-10T11:16:14;18.60;97.00
10030;DHT22;5055;52.054;8.524;2023-05-10T11:18:54;18.60;97.00
10030;DHT22;5055;52.054;8.524;2023-05-10T11:21:24;18.50;97.00
10030;DHT22;5055;52.054;8.524;2023-05-10T11:23:54;18.80;97.00
10030;DHT22;5055;52.054;8.524;2023-05-10T11:26:30;19.10;97.00
10030;DHT22;5055;52.054;8.524;2023-05-10T11:28:58;19.50;97.00
10030;DHT22;5055;52.054;8.524;2023-05-10T11:31:28;19.90;97.00
10030;DHT22;5055;52.054;8.524;2023-05-10T11:33:58;20.20;97.00
10030;DHT22;5055;52.054;8.524;2023-05-10T11:36:27;20.20;97.00
10030;DHT22;5055;52.054;8.524;2023-05-10T11:38:56;20.40;97.00
10030;DHT22;5055;52.054;8.524;2023-05-10T11:41:29;20.60;97.00
10030;DHT22;5055;52.054;8.524;2023-05-10T11:43:58;21.30;97.00
10030;DHT22;5055;52.054;8.524;2023-05-10T11:46:27;21.80;97.00
10030;DHT22;5055;52.054;8.524;2023-05-10T11:48:59;21.70;97.00
10030;DHT22;5055;52.054;8.524;2023-05-10T11:51:33;21.60;97.00
10030;DHT22;5055;52.054;8.524;2023-05-10T11:54:06;21.50;97.00
10030;DHT22;5055;52.054;8.524;2023-05-10T11:56:36;21.20;97.00
10030;DHT22;5055;52.054;8.524;2023-05-10T11:59:04;20.60;97.00
10030;DHT22;5055;52.054;8.524;2023-05-10T12:01:32;20.20;97.00
10030;DHT22;5055;52.054;8.524;2023-05-10T12:04:01;19.80;97.00
10030;DHT22;5055;52.054;8.524;2023-05-10T12:06:30;19.80;97.00
10030;DHT22;5055;52.054;8.524;2023-05-10T12:09:01;19.50;97.00
10030;DHT22;5055;52.054;8.524;2023-05-10T12:11:39;19.30;97.00
10030;DHT22;5055;52.054;8.524;2023-05-10T12:14:13;19.20;97.00
10030;DHT22;5055;52.054;8.524;2023-05-10T12:16:46;19.10;97.00
10030;DHT22;5055;52.054;8.524;2023-05-10T12:19:18;18.80;97.00
10030;DHT22;5055;52.054;8.524;2023-05-10T12:21:48;18.60;97.00
10030;DHT22;5055;52.054;8.524;2023-05-10T12:24:16;18.30;97.00
10030;DHT22;5055;52.054;8.524;2023-05-10T12:26:46;18.30;97.00
10030;DHT22;5055;52.054;8.524;2023-05-10T12:29:16;18.40;97.00
10030;DHT22;5055;52.054;8.524;2023-05-10T12:31:52;18.60;97.00
10030;DHT22;5055;52.054;8.524;2023-05-10T12:34:29;18.60;97.00
10030;DHT22;5055;52.054;8.524;2023-05-10T12:36:58;18.60;97.00
10030;DHT22;5055;52.054;8.524;2023-05-10T12:39:38;18.60;97.00
10030;DHT22;5055;52.054;8.524;2023-05-10T12:42:07;18.70;97.00
10030;DHT22;5055;52.054;8.524;2023-05-10T12:44:36;18.70;97.00
10030;DHT22;5055;52.054;8.524;2023-05-10T12:47:04;18.80;97.00
10030;DHT22;5055;52.054;8.524;2023-05-10T12:49:32;18.90;97.00
10030;DHT22;5055;52.054;8.524;2023-05-10T12:52:00;19.00;97.00
10030;DHT22;5055;52.054;8.524;2023-05-10T12:54:28;19.00;97.00
10030;DHT22;5055;52.054;8.524;2023-05-10T12:56:57;19.00;97.00
10030;DHT22;5055;52.054;8.524;2023-05-10T12:59:26;19.30;97.00
10030;DHT22;5055;52.054;8.524;2023-05-10T13:01:54;19.60;97.00
10030;DHT22;5055;52.054;8.524;2023-05-10T13:04:22;19.60;97.00
10030;DHT22;5055;52.054;8.524;2023-05-10T13:06:50;19.90;97.00
10030;DHT22;5055;52.054;8.524;2023-05-10T13:09:18;20.00;97.00
10030;DHT22;5055;52.054;8.524;2023-05-10T13:11:47;20.60;97.00
10030;DHT22;5055;52.054;8.524;2023-05-10T13:14:15;21.10;97.00
10030;DHT22;5055;52.054;8.524;2023-05-10T13:16:44;21.10;97.00
10030;DHT22;5055;52.054;8.524;2023-05-10T13:19:13;21.10;97.00
10030;DHT22;5055;52.054;8.524;2023-05-10T13:21:42;20.70;97.00
10030;DHT22;5055;52.054;8.524;2023-05-10T13:24:11;20.50;97.00
10030;DHT22;5055;52.054;8.524;2023-05-10T13:26:40;20.10;97.00
10030;DHT22;5055;52.054;8.524;2023-05-10T13:29:08;19.70;97.00
10030;DHT22;5055;52.054;8.524;2023-05-10T13:31:36;19.30;97.00
10030;DHT22;5055;52.054;8.524;2023-05-10T13:34:06;18.90;97.00
10030;DHT22;5055;52.054;8.524;2023-05-10T13:36:34;18.40;97.00
10030;DHT22;5055;52.054;8.524;2023-05-10T13:39:02;17.90;97.00
10030;DHT22;5055;52.054;8.524;2023-05-10T13:41:32;17.50;97.00
10030;DHT22;5055;52.054;8.524;2023-05-10T13:44:00;16.90;97.00
10030;DHT22;5055;52.054;8.524;2023-05-10T13:46:30;16.50;97.00
10030;DHT22;5055;52.054;8.524;2023-05-10T13:48:58;16.30;97.00
10030;DHT22;5055;52.054;8.524;2023-05-10T13:51:27;16.10;97.00
10030;DHT22;5055;52.054;8.524;2023-05-10T13:53:55;15.90;97.00
10030;DHT22;5055;52.054;8.524;2023-05-10T13:56:24;15.80;97.00
10030;DHT22;5055;52.054;8.524;2023-05-10T13:58:52;15.80;97.00
10030;DHT22;5055;52.054;8.524;2023-05-10T14:01:20;15.70;97.00
10030;DHT22;5055;52.054;8.524;2023-05-10T14:03:48;15.70;97.00
10030;DHT22;5055;52.054;8.524;2023-05-10T14:06:17;15.70;97.00
10030;DHT22;5055;52.054;8.524;2023-05-10T14:08:46;15.70;97.00
10030;DHT22;5055;52.054;8.524;2023-05-10T14:11:14;15.70;97.00
10030;DHT22;5055;52.054;8.524;2023-05-10T14:13:43;15.70;97.00
10030;DHT22;5055;52.054;8.524;2023-05-10T14:16:11;15.70;97.00
10030;DHT22;5055;52.054;8.524;2023-05-10T14:18:41;15.80;97.00
10030;DHT22;5055;52.054;8.524;2023-05-10T14:21:09;15.90;97.00
10030;DHT22;5055;52.054;8.524;2023-05-10T14:23:38;16.00;97.00
10030;DHT22;5055;52.054;8.524;2023-05-10T14:26:07;16.10;97.00
10030;DHT22;5055;52.054;8.524;2023-05-10T14:28:35;16.30;97.00
10030;DHT22;5055;52.054;8.524;2023-05-10T14:31:03;16.40;97.00
10030;DHT22;5055;52.054;8.524;2023-05-10T14:33:32;16.40;97.00
10030;DHT22;5055;52.054;8.524;2023-05-10T14:36:00;16.40;97.00
10030;DHT22;5055;52.054;8.524;2023-05-10T14:38:29;16.60;97.00
10030;DHT22;5055;52.054;8.524;2023-05-10T14:40:57;16.80;97.00
10030;DHT22;5055;52.054;8.524;2023-05-10T14:43:27;17.00;97.00
10030;DHT22;5055;52.054;8.524;2023-05-10T14:45:55;17.10;97.00
10030;DHT22;5055;52.054;8.524;2023-05-10T14:48:23;17.20;97.00
10030;DHT22;5055;52.054;8.524;2023-05-10T14:50:51;17.40;97.00
10030;DHT22;5055;52.054;8.524;2023-05-10T14:53:20;17.40;97.00
10030;DHT22;5055;52.054;8.524;2023-05-10T14:55:48;17.50;97.00
10030;DHT22;5055;52.054;8.524;2023-05-10T14:58:16;17.50;97.00
10030;DHT22;5055;52.054;8.524;2023-05-10T15:00:46;17.60;97.00
10030;DHT22;5055;52.054;8.524;2023-05-10T15:03:14;17.50;97.00
10030;DHT22;5055;52.054;8.524;2023-05-10T15:05:43;17.50;97.00
10030;DHT22;5055;52.054;8.524;2023-05-10T15:08:11;17.60;97.00
10030;DHT22;5055;52.054;8.524;2023-05-10T15:10:39;17.60;97.00
10030;DHT22;5055;52.054;8.524;2023-05-10T15:13:07;17.50;97.00
10030;DHT22;5055;52.054;8.524;2023-05-10T15:15:36;17.60;97.00
10030;DHT22;5055;52.054;8.524;2023-05-10T15:18:05;17.70;97.00
10030;DHT22;5055;52.054;8.524;2023-05-10T15:20:34;17.70;97.00
10030;DHT22;5055;52.054;8.524;2023-05-10T15:23:02;17.70;97.00
10030;DHT22;5055;52.054;8.524;2023-05-10T15:25:30;17.70;97.00
10030;DHT22;5055;52.054;8.524;2023-05-10T15:28:01;17.80;97.00
10030;DHT22;5055;52.054;8.524;2023-05-10T15:30:29;17.70;97.00
10030;DHT22;5055;52.054;8.524;2023-05-10T15:32:57;17.70;97.00
10030;DHT22;5055;52.054;8.524;2023-05-10T15:35:27;17.40;97.00
10030;DHT22;5055;52.054;8.524;2023-05-10T15:37:55;17.40;97.00
10030;DHT22;5055;52.054;8.524;2023-05-10T15:40:24;17.40;97.00
10030;DHT22;5055;52.054;8.524;2023-05-10T15:42:52;17.20;97.00
10030;DHT22;5055;52.054;8.524;2023-05-10T15:45:20;17.10;97.00
10030;DHT22;5055;52.054;8.524;2023-05-10T15:47:48;17.00;97.00
10030;DHT22;5055;52.054;8.524;2023-05-10T15:50:16;16.90;97.00
10030;DHT22;5055;52.054;8.524;2023-05-10T15:52:46;16.90;97.00
10030;DHT22;5055;52.054;8.524;2023-05-10T15:55:14;16.80;97.00
10030;DHT22;5055;52.054;8.524;2023-05-10T15:57:43;16.70;97.00
10030;DHT22;5055;52.054;8.524;2023-05-10T16:00:12;16.70;97.00
10030;DHT22;5055;52.054;8.524;2023-05-10T16:02:40;16.70;97.00
10030;DHT22;5055;52.054;8.524;2023-05-10T16:05:09;16.60;97.00